Time;durP1;ratioP1;P1;durP2;ratioP2;P2;SDS_P1;SDS_P2;PMS_P1;PMS_P2;Temp;Humidity;BMP_temperature;BMP_pressure;BME280_temperature;BME280_humidity;BME280_pressure;Samples;Min_cycle;Max_cycle;Signal;HPM_P1;HPM_P2
2021/03/01 00:01:55;;;;;;;29.58;12.85;;;;;;;5.84;45.72;96024.81;5015292;28;20470;-82
2021/03/01 00:04:21;;;;;;;26.17;13.98;;;;;;;5.80;45.68;96020.97;5014409;28;20508;-83
2021/03/01 00:06:46;;;;;;;23.70;12.55;;;;;;;5.75;45.87;96015.53;5014013;28;20031;-83
2021/03/01 00:09:12;;;;;;;25.73;13.90;;;;;;;5.78;45.35;96019.56;5320340;23;20058;-82
2021/03/01 00:11:37;;;;;;;23.83;11.43;;;;;;;5.72;46.01;96018.47;5006578;28;20037;-82
2021/03/01 00:14:03;;;;;;;21.63;11.35;;;;;;;5.77;45.42;96020.53;4982032;28;20038;-82
2021/03/01 00:16:28;;;;;;;17.48;9.13;;;;;;;5.72;45.55;96010.72;4959755;28;20616;-83
2021/03/01 00:18:54;;;;;;;42.88;14.25;;;;;;;5.69;45.67;96018.78;4957959;28;20027;-82
2021/03/01 00:21:20;;;;;;;28.20;11.75;;;;;;;5.67;45.58;96013.00;4942534;28;20038;-82
2021/03/01 00:23:48;;;;;;;21.98;9.00;;;;;;;5.60;45.71;96001.78;5006370;23;20047;-84
2021/03/01 00:26:14;;;;;;;15.80;8.77;;;;;;;5.60;45.82;96004.34;5010172;23;20050;-83
2021/03/01 00:28:40;;;;;;;15.63;8.90;;;;;;;5.56;45.76;96008.25;4989279;28;20034;-82
2021/03/01 00:31:06;;;;;;;24.67;11.45;;;;;;;5.53;45.89;96006.00;4955104;28;20034;-84
2021/03/01 00:33:32;;;;;;;20.55;10.38;;;;;;;5.52;45.58;96001.81;4967853;28;20034;-84
2021/03/01 00:35:57;;;;;;;22.23;9.63;;;;;;;5.47;45.67;95991.22;4937244;28;20085;-84
2021/03/01 00:38:23;;;;;;;22.55;11.25;;;;;;;5.43;45.38;95991.56;4952101;28;20070;-84
2021/03/01 00:40:48;;;;;;;14.07;9.77;;;;;;;5.41;45.75;95992.69;4944293;28;20039;-83
2021/03/01 00:43:14;;;;;;;23.27;10.75;;;;;;;5.43;45.09;95996.72;4986314;28;20042;-84
2021/03/01 00:45:39;;;;;;;21.58;10.05;;;;;;;5.46;45.17;96000.72;4937970;28;20101;-84
2021/03/01 00:48:05;;;;;;;16.23;9.07;;;;;;;5.42;45.09;95987.38;4987492;28;20081;-84
2021/03/01 00:50:30;;;;;;;22.55;9.57;;;;;;;5.42;44.97;95984.78;4956565;28;20070;-83
2021/03/01 00:52:56;;;;;;;13.25;8.38;;;;;;;5.36;45.08;95976.91;4955351;28;20022;-84
2021/03/01 00:55:21;;;;;;;13.00;8.05;;;;;;;5.39;44.99;95974.81;4985540;28;20086;-84
2021/03/01 00:57:47;;;;;;;15.52;8.52;;;;;;;5.38;44.62;95978.38;4937789;28;20030;-84
2021/03/01 01:00:16;;;;;;;12.63;8.35;;;;;;;5.32;45.00;95968.72;4977441;28;20045;-84
2021/03/01 01:02:42;;;;;;;12.35;7.68;;;;;;;5.28;44.43;95964.88;4954799;28;20038;-83
2021/03/01 01:05:08;;;;;;;12.32;7.70;;;;;;;5.24;44.41;95966.19;4952690;28;20096;-83
2021/03/01 01:07:34;;;;;;;10.75;7.97;;;;;;;5.26;44.47;95959.09;4952631;28;20057;-82
2021/03/01 01:12:50;;;;;;;12.15;7.57;;;;;;;5.20;44.20;95957.19;5041958;23;20050;-82
2021/03/01 01:15:15;;;;;;;15.48;7.38;;;;;;;5.11;44.43;95961.59;5036169;28;20030;-81
2021/03/01 01:17:41;;;;;;;12.65;7.07;;;;;;;5.12;44.62;95954.66;5034334;28;20365;-82
2021/03/01 01:20:10;;;;;;;11.18;7.55;;;;;;;5.05;44.24;95951.97;4997005;28;20558;-84
2021/03/01 01:22:36;;;;;;;38.25;13.13;;;;;;;5.11;44.50;95956.44;5022936;28;20036;-85
2021/03/01 01:25:03;;;;;;;28.25;11.10;;;;;;;5.13;44.58;95954.50;5024747;28;20033;-83
2021/03/01 01:30:09;;;;;;;11.07;7.70;;;;;;;5.11;44.50;95951.28;5440637;23;20050;-84
2021/03/01 01:32:36;;;;;;;14.88;7.07;;;;;;;5.16;44.60;95942.22;4991183;28;20022;-84
2021/03/01 01:35:03;;;;;;;12.75;7.50;;;;;;;5.13;44.38;95938.22;4966934;28;20029;-83
2021/03/01 01:37:28;;;;;;;17.00;8.23;;;;;;;5.16;44.61;95943.03;4974539;28;20042;-83
2021/03/01 01:39:54;;;;;;;19.02;9.00;;;;;;;5.19;44.67;95942.69;4985400;28;20038;-82
2021/03/01 01:42:19;;;;;;;19.50;7.82;;;;;;;5.20;44.48;95943.50;4998317;28;20036;-80
2021/03/01 01:44:45;;;;;;;11.52;7.78;;;;;;;5.15;44.55;95936.28;4998952;28;20064;-81
2021/03/01 01:49:45;;;;;;;11.90;7.43;;;;;;;5.05;44.62;95935.69;5089608;23;20065;-83
2021/03/01 01:52:11;;;;;;;11.05;7.88;;;;;;;5.00;45.03;95935.38;5000024;28;20038;-83
2021/03/01 01:54:36;;;;;;;12.98;7.88;;;;;;;4.98;44.94;95934.75;4988839;23;20065;-82
2021/03/01 01:57:02;;;;;;;13.27;8.13;;;;;;;5.00;44.80;95938.75;4971806;28;20033;-83
2021/03/01 01:59:28;;;;;;;15.43;7.43;;;;;;;4.99;44.75;95938.94;4984463;28;20064;-84
2021/03/01 02:01:53;;;;;;;14.93;8.38;;;;;;;4.95;44.51;95935.09;4985644;28;20027;-83
2021/03/01 02:04:42;;;;;;;14.98;8.55;;;;;;;5.02;44.75;95936.00;4984302;28;20042;-82
2021/03/01 02:07:16;;;;;;;12.82;8.43;;;;;;;4.98;44.91;95942.50;4986533;28;20434;-83
2021/03/01 02:10:07;;;;;;;17.27;9.48;;;;;;;4.97;44.93;95938.31;4987318;28;20027;-83
2021/03/01 02:13:09;;;;;;;13.52;8.02;;;;;;;4.91;45.24;95944.94;4977129;28;20038;-83
2021/03/01 02:15:47;;;;;;;13.95;8.57;;;;;;;4.93;45.54;95950.75;4967998;28;20065;-83
2021/03/01 02:18:12;;;;;;;17.35;8.98;;;;;;;4.95;45.37;95948.00;4983906;28;20038;-83
2021/03/01 02:20:42;;;;;;;13.57;8.38;;;;;;;4.86;45.83;95943.81;5106652;23;21464;-81
2021/03/01 02:23:10;;;;;;;17.83;8.48;;;;;;;4.80;46.05;95943.53;5579934;23;20101;-82
2021/03/01 02:25:35;;;;;;;14.35;7.30;;;;;;;4.78;46.31;95942.91;5024043;28;20074;-82
2021/03/01 02:28:11;;;;;;;13.32;8.50;;;;;;;4.72;46.22;95930.72;4986954;28;20154;-82
2021/03/01 02:30:39;;;;;;;11.52;7.25;;;;;;;4.65;46.52;95936.69;5018171;28;20030;-82
2021/03/01 02:33:10;;;;;;;11.80;8.10;;;;;;;4.45;47.21;95931.94;5016365;28;20022;-82
2021/03/01 02:35:37;;;;;;;19.17;7.75;;;;;;;4.35;47.41;95938.22;4993061;28;20092;-83
2021/03/01 02:38:05;;;;;;;9.85;7.05;;;;;;;4.30;47.97;95936.16;4995093;28;20394;-83
2021/03/01 02:40:30;;;;;;;10.07;7.28;;;;;;;4.21;47.92;95935.34;4978331;28;20402;-83
2021/03/01 02:42:56;;;;;;;14.32;7.75;;;;;;;4.16;48.17;95929.09;4996190;28;20030;-83
2021/03/01 02:45:22;;;;;;;10.93;7.50;;;;;;;4.13;48.50;95930.25;5016765;28;20044;-82
2021/03/01 02:50:16;;;;;;;14.65;10.55;;;;;;;4.06;48.44;95933.63;5085462;23;20061;-81
2021/03/01 02:52:42;;;;;;;12.23;8.15;;;;;;;3.99;48.73;95933.47;4977932;28;20100;-81
2021/03/01 02:55:08;;;;;;;14.32;7.82;;;;;;;4.01;48.70;95936.69;4977870;28;20037;-80
2021/03/01 02:57:34;;;;;;;11.80;8.15;;;;;;;3.97;48.83;95932.84;4978617;28;20033;-81
2021/03/01 03:00:00;;;;;;;17.60;8.50;;;;;;;3.99;49.04;95922.38;4978891;28;20030;-82
2021/03/01 03:02:25;;;;;;;12.38;9.02;;;;;;;3.99;49.01;95923.19;4964849;28;20026;-81
2021/03/01 03:04:54;;;;;;;13.68;9.10;;;;;;;4.01;49.27;95923.81;4981570;28;20437;-80
2021/03/01 03:07:19;;;;;;;15.30;8.00;;;;;;;4.01;48.42;95930.75;4980497;28;20068;-82
2021/03/01 03:09:45;;;;;;;14.60;9.27;;;;;;;4.00;48.98;95924.78;4998200;28;20042;-82
2021/03/01 03:12:12;;;;;;;19.05;10.25;;;;;;;4.00;48.80;95926.56;4982201;28;20049;-82
2021/03/01 03:17:07;;;;;;;21.50;11.15;;;;;;;3.90;49.21;95921.56;4985977;28;20094;-82
2021/03/01 03:19:33;;;;;;;21.00;13.15;;;;;;;3.92;49.14;95924.81;4988466;28;20039;-82
2021/03/01 03:21:58;;;;;;;20.17;12.05;;;;;;;3.86;49.14;95922.88;4987142;28;20022;-81
2021/03/01 03:24:24;;;;;;;22.00;11.93;;;;;;;3.86;49.36;95922.88;4968248;28;20042;-84
2021/03/01 03:26:49;;;;;;;18.70;11.98;;;;;;;3.87;49.19;95915.00;4935422;28;20035;-83
2021/03/01 03:29:15;;;;;;;15.05;9.32;;;;;;;3.80;49.35;95920.97;4954892;28;20042;-83
2021/03/01 03:31:40;;;;;;;17.30;10.30;;;;;;;3.77;49.50;95913.56;4933815;28;20030;-81
2021/03/01 03:34:07;;;;;;;22.92;10.70;;;;;;;3.78;49.70;95920.31;4953875;28;20028;-82
2021/03/01 03:36:35;;;;;;;16.33;9.88;;;;;;;3.82;49.25;95916.47;4952470;28;20030;-81
2021/03/01 03:39:06;;;;;;;16.10;9.07;;;;;;;3.75;49.60;95925.81;4967809;28;20117;-83
2021/03/01 03:41:32;;;;;;;25.80;11.55;;;;;;;3.68;50.09;95909.38;4954810;28;20026;-81
2021/03/01 03:43:58;;;;;;;18.38;10.38;;;;;;;3.61;49.99;95915.19;4949698;28;20060;-82
2021/03/01 03:46:25;;;;;;;16.95;11.15;;;;;;;3.57;50.53;95916.47;4952760;28;20039;-82
2021/03/01 03:48:50;;;;;;;19.27;10.90;;;;;;;3.55;50.50;95920.16;4971789;28;20026;-83
2021/03/01 03:51:16;;;;;;;22.63;10.85;;;;;;;3.52;50.71;95916.16;4957120;28;20035;-82
2021/03/01 03:53:49;;;;;;;18.67;11.45;;;;;;;3.52;50.75;95923.84;4970989;28;20034;-81
2021/03/01 03:56:14;;;;;;;14.65;10.10;;;;;;;3.52;50.73;95915.34;4988297;28;20128;-82
2021/03/01 03:58:45;;;;;;;11.38;8.40;;;;;;;3.56;50.72;95917.44;4970450;28;20486;-83
2021/03/01 04:01:13;;;;;;;14.63;8.98;;;;;;;3.58;50.64;95915.53;4954229;28;20121;-82
2021/03/01 04:03:38;;;;;;;15.13;9.85;;;;;;;3.61;50.59;95910.06;4949709;28;20026;-82
2021/03/01 04:06:04;;;;;;;23.10;11.40;;;;;;;3.64;50.32;95918.41;4953749;28;20039;-82
2021/03/01 04:08:29;;;;;;;17.40;11.15;;;;;;;3.57;50.76;95910.50;4936145;28;20045;-83
2021/03/01 04:10:55;;;;;;;20.23;12.70;;;;;;;3.63;50.88;95917.59;5133720;23;21436;-81
2021/03/01 04:13:24;;;;;;;27.55;14.52;;;;;;;3.66;50.39;95912.13;5095562;23;20144;-83
2021/03/01 04:15:49;;;;;;;33.72;15.10;;;;;;;3.75;50.52;95905.22;5004373;28;20049;-81
2021/03/01 04:18:17;;;;;;;21.30;13.23;;;;;;;3.84;50.37;95911.94;5039818;23;20012;-81
2021/03/01 04:20:42;;;;;;;32.53;13.90;;;;;;;3.90;50.14;95913.84;4978891;28;20061;-81
2021/03/01 04:23:11;;;;;;;28.17;12.30;;;;;;;3.92;49.61;95917.09;4987059;28;20030;-82
2021/03/01 04:25:37;;;;;;;23.77;11.20;;;;;;;3.90;49.61;95919.00;4965393;28;20038;-84
2021/03/01 04:28:03;;;;;;;26.60;13.20;;;;;;;3.95;49.31;95927.06;4955484;28;20045;-83
2021/03/01 04:33:04;;;;;;;28.52;13.40;;;;;;;4.01;49.58;95921.25;5045881;23;20093;-83
2021/03/01 04:35:29;;;;;;;41.50;15.60;;;;;;;4.02;49.72;95917.72;4995342;28;20027;-81
2021/03/01 04:37:55;;;;;;;28.65;15.80;;;;;;;4.08;50.00;95924.78;5236308;23;20058;-83
2021/03/01 04:40:20;;;;;;;26.98;11.80;;;;;;;4.13;49.67;95909.66;4952346;28;20035;-82
2021/03/01 04:42:46;;;;;;;19.75;12.45;;;;;;;4.09;49.76;95913.53;4966831;28;20031;-80
2021/03/01 04:45:13;;;;;;;23.20;12.98;;;;;;;4.02;50.15;95911.75;4944605;28;20511;-82
2021/03/01 04:47:39;;;;;;;20.40;11.40;;;;;;;3.97;50.09;95909.69;4942326;28;20038;-80
2021/03/01 04:50:05;;;;;;;17.75;11.88;;;;;;;4.00;50.36;95919.66;4941983;28;20114;-81
2021/03/01 04:52:31;;;;;;;13.68;9.40;;;;;;;3.92;50.36;95911.94;4963598;28;20609;-81
2021/03/01 04:54:58;;;;;;;12.20;9.75;;;;;;;3.91;50.27;95910.34;4965633;28;20067;-81
2021/03/01 04:57:23;;;;;;;16.38;10.18;;;;;;;3.86;50.71;95912.59;4940664;28;20042;-82
2021/03/01 04:59:49;;;;;;;15.95;9.90;;;;;;;3.89;50.30;95900.19;4951150;28;20035;-82
2021/03/01 05:02:14;;;;;;;16.90;11.07;;;;;;;3.93;50.43;95908.41;4952118;28;20042;-82
2021/03/01 05:04:40;;;;;;;19.50;9.93;;;;;;;3.88;50.62;95915.78;4966687;28;20557;-82
2021/03/01 05:07:06;;;;;;;18.90;10.00;;;;;;;3.87;50.27;95915.00;4943078;28;20043;-82
2021/03/01 05:09:31;;;;;;;20.25;9.77;;;;;;;3.85;50.62;95922.06;4951172;28;20030;-81
2021/03/01 05:11:57;;;;;;;15.95;9.25;;;;;;;3.83;50.91;95923.22;4924380;28;20595;-81
2021/03/01 05:14:22;;;;;;;16.30;9.30;;;;;;;3.87;50.75;95921.91;4925345;28;20035;-81
2021/03/01 05:16:48;;;;;;;18.73;9.77;;;;;;;3.83;50.21;95933.50;4957790;28;20396;-81
2021/03/01 05:19:14;;;;;;;14.32;9.60;;;;;;;3.88;50.38;95931.22;4942759;28;20039;-82
2021/03/01 05:21:41;;;;;;;12.23;8.93;;;;;;;3.92;50.32;95933.34;4977662;28;20073;-82
2021/03/01 05:24:07;;;;;;;15.55;10.80;;;;;;;4.09;49.78;95941.84;4983819;28;20039;-83
2021/03/01 05:26:33;;;;;;;18.58;11.45;;;;;;;4.38;49.34;95943.84;4985555;28;20027;-81
2021/03/01 05:28:58;;;;;;;23.98;11.45;;;;;;;4.64;48.87;95941.03;4987656;28;20066;-81
2021/03/01 05:31:25;;;;;;;23.15;13.00;;;;;;;4.89;48.42;95941.75;4977818;28;20023;-80
2021/03/01 05:33:54;;;;;;;20.58;11.25;;;;;;;5.17;47.54;95944.63;4988727;28;20054;-82
2021/03/01 05:36:45;;;;;;;36.95;10.70;;;;;;;5.46;46.80;95945.75;4975666;28;20038;-82
2021/03/01 05:39:24;;;;;;;26.85;10.88;;;;;;;5.68;45.97;95947.50;4968921;28;20031;-81
2021/03/01 05:41:52;;;;;;;41.50;11.35;;;;;;;5.93;45.31;95943.00;4959381;28;20486;-83
2021/03/01 05:44:18;;;;;;;37.03;14.25;;;;;;;6.24;45.02;95953.19;4928155;28;20055;-82
2021/03/01 05:46:50;;;;;;;30.90;16.90;;;;;;;6.49;44.31;95944.19;4943868;28;20034;-82
2021/03/01 05:49:15;;;;;;;69.15;26.98;;;;;;;6.75;43.86;95945.53;4959170;28;20050;-83
2021/03/01 05:51:50;;;;;;;71.10;28.13;;;;;;;7.18;42.99;95938.69;4949855;28;20528;-80
2021/03/01 05:54:16;;;;;;;63.65;35.88;;;;;;;7.63;42.35;95934.13;4967299;28;20031;-80
2021/03/01 05:56:41;;;;;;;34.08;18.50;;;;;;;7.75;41.12;95943.00;4965810;28;20022;-78
2021/03/01 05:59:08;;;;;;;35.47;21.90;;;;;;;7.75;42.06;95943.81;4966370;28;20075;-80
2021/03/01 06:01:39;;;;;;;67.30;34.53;;;;;;;7.93;41.42;95945.16;4953700;28;21106;-79
2021/03/01 06:04:05;;;;;;;82.97;39.08;;;;;;;8.07;41.25;95939.88;4950554;28;20031;-80
2021/03/01 06:06:31;;;;;;;52.40;27.98;;;;;;;8.24;41.22;95937.81;4961518;28;20023;-77
2021/03/01 06:08:59;;;;;;;52.80;25.23;;;;;;;8.37;40.26;95937.94;4962880;28;20063;-78
2021/03/01 06:11:24;;;;;;;38.25;22.48;;;;;;;8.47;40.44;95937.59;4968186;28;20035;-78
2021/03/01 06:13:50;;;;;;;30.08;16.25;;;;;;;8.62;40.10;95925.31;4951088;28;20431;-78
2021/03/01 06:16:16;;;;;;;24.50;14.68;;;;;;;8.70;40.08;95926.94;4933222;28;20035;-79
2021/03/01 06:18:43;;;;;;;28.90;16.35;;;;;;;8.74;39.90;95928.16;4953888;28;20034;-77
2021/03/01 06:21:22;;;;;;;35.42;17.27;;;;;;;8.89;40.10;95926.22;4977978;28;20039;-78
2021/03/01 06:23:47;;;;;;;34.38;18.95;;;;;;;9.08;39.36;95913.53;4964051;28;20062;-79
2021/03/01 06:26:32;;;;;;;22.05;14.20;;;;;;;9.17;39.40;95907.16;4971965;28;20023;-79
2021/03/01 06:29:03;;;;;;;30.45;17.58;;;;;;;9.41;38.73;95905.81;4974633;28;20089;-80
2021/03/01 06:31:41;;;;;;;45.17;19.27;;;;;;;9.57;38.33;95898.44;4964474;28;20082;-80
2021/03/01 06:34:24;;;;;;;29.38;14.55;;;;;;;9.62;38.46;95896.06;4948941;28;20031;-80
2021/03/01 06:36:53;;;;;;;;;;;;;;;9.77;38.43;95902.88;4956187;28;20043;-79
2021/03/01 06:39:45;;;;;;;21.98;12.52;;;;;;;9.73;37.77;95902.44;4968061;28;20053;-79
2021/03/01 06:42:19;;;;;;;27.80;13.77;;;;;;;9.70;37.83;95908.03;4961633;28;20525;-82
2021/03/01 06:44:56;;;;;;;26.95;14.68;;;;;;;9.75;38.38;95904.84;4962596;28;20599;-79
2021/03/01 06:47:43;;;;;;;20.83;14.43;;;;;;;9.92;37.92;95908.63;4961190;28;20367;-81
2021/03/01 06:50:45;;;;;;;20.33;11.90;;;;;;;9.95;37.66;95910.88;4958537;28;20507;-81
2021/03/01 06:56:45;;;;;;;19.77;13.02;;;;;;;9.80;38.08;95897.28;5074132;23;20053;-79
2021/03/01 06:59:15;;;;;;;28.05;11.68;;;;;;;9.87;37.56;95924.84;4933043;29;20043;-84
2021/03/01 07:01:54;;;;;;;15.98;12.07;;;;;;;9.68;38.26;95922.22;4949077;29;20051;-85
2021/03/01 07:04:29;;;;;;;37.13;13.63;;;;;;;9.65;38.14;95926.03;4978817;28;20073;-84
2021/03/01 07:06:56;;;;;;;29.73;12.63;;;;;;;9.66;37.94;95925.03;4977868;28;20042;-84
2021/03/01 07:09:37;;;;;;;29.48;13.13;;;;;;;9.59;38.27;95932.78;4963331;28;20506;-78
2021/03/01 07:12:03;;;;;;;20.35;12.95;;;;;;;9.54;38.61;95935.19;4965174;28;20061;-79
2021/03/01 07:14:31;;;;;;;25.10;14.50;;;;;;;9.31;38.93;95934.75;4985279;28;20073;-78
2021/03/01 07:17:01;;;;;;;20.35;11.82;;;;;;;9.15;39.78;95935.13;4981486;28;20019;-81
2021/03/01 07:19:30;;;;;;;16.67;12.38;;;;;;;9.12;39.71;95930.31;4966874;28;20053;-81
2021/03/01 07:22:03;;;;;;;20.27;11.15;;;;;;;8.94;40.27;95933.41;4966445;28;20042;-81
2021/03/01 07:24:30;;;;;;;18.25;11.48;;;;;;;8.93;40.26;95935.22;4987710;28;20023;-80
2021/03/01 07:26:57;;;;;;;23.02;11.85;;;;;;;8.59;41.36;95946.44;4990883;28;20483;-81
2021/03/01 07:29:22;;;;;;;19.95;11.10;;;;;;;8.36;42.33;95951.88;4984642;28;20074;-81
2021/03/01 07:31:59;;;;;;;19.15;11.40;;;;;;;8.35;42.45;95944.31;4984487;28;20098;-79
2021/03/01 07:34:25;;;;;;;22.15;13.48;;;;;;;8.26;42.22;95950.56;4966791;28;20030;-80
2021/03/01 07:36:54;;;;;;;24.15;14.52;;;;;;;8.30;42.73;95955.22;4967689;28;20022;-80
2021/03/01 07:39:20;;;;;;;28.35;15.30;;;;;;;8.47;42.24;95952.34;4951230;28;20509;-82
2021/03/01 07:41:45;;;;;;;28.80;15.52;;;;;;;8.66;41.98;95956.84;4984219;28;20042;-80
2021/03/01 07:44:24;;;;;;;24.25;15.43;;;;;;;8.64;42.02;95953.66;4966103;28;20045;-80
2021/03/01 07:46:50;;;;;;;32.75;16.13;;;;;;;8.79;41.52;95959.53;4970294;28;20027;-80
2021/03/01 07:49:38;;;;;;;26.95;16.10;;;;;;;8.78;41.52;95944.91;4987594;28;20034;-81
2021/03/01 07:52:04;;;;;;;35.53;15.05;;;;;;;8.81;41.94;95948.94;4983819;28;20062;-81
2021/03/01 07:54:48;;;;;;;24.35;15.35;;;;;;;8.89;41.90;95938.41;4935593;28;20125;-81
2021/03/01 07:57:14;;;;;;;24.98;16.77;;;;;;;8.96;41.66;95931.47;4985189;28;20023;-81
2021/03/01 07:59:39;;;;;;;22.52;14.27;;;;;;;9.02;41.79;95934.06;4967033;28;20035;-80
2021/03/01 08:02:09;;;;;;;35.40;17.27;;;;;;;9.08;41.94;95939.47;4952605;28;20038;-80
2021/03/01 08:04:35;;;;;;;20.73;14.15;;;;;;;9.12;41.89;95920.75;4953102;28;20027;-81
2021/03/01 08:07:01;;;;;;;29.50;17.23;;;;;;;9.20;41.21;95930.94;4975520;28;20022;-80
2021/03/01 08:09:45;;;;;;;21.48;15.30;;;;;;;9.27;41.39;95933.53;4950881;28;20572;-81
2021/03/01 08:12:12;;;;;;;23.70;13.63;;;;;;;9.25;40.72;95930.34;4989302;28;20165;-81
2021/03/01 08:14:53;;;;;;;25.27;12.90;;;;;;;9.22;41.12;95941.13;4971587;28;20034;-79
2021/03/01 08:17:28;;;;;;;27.33;13.38;;;;;;;9.12;41.01;95935.50;4969130;28;20066;-79
2021/03/01 08:20:18;;;;;;;20.83;12.52;;;;;;;8.80;41.31;95935.19;4989130;28;20022;-81
2021/03/01 08:23:05;;;;;;;23.98;13.75;;;;;;;8.80;41.44;95927.41;4975842;28;20067;-81
2021/03/01 08:25:44;;;;;;;25.92;12.18;;;;;;;8.71;41.88;95928.53;4975010;28;20034;-81
2021/03/01 08:28:15;;;;;;;21.90;14.20;;;;;;;8.69;42.17;95926.16;4985954;28;20053;-80
2021/03/01 08:30:40;;;;;;;49.30;22.42;;;;;;;8.85;41.21;95919.84;5271668;23;21260;-80
2021/03/01 08:33:09;;;;;;;30.48;17.60;;;;;;;8.84;41.81;95920.03;5007087;28;20133;-81
2021/03/01 08:35:47;;;;;;;31.65;17.00;;;;;;;8.98;41.37;95909.50;5007919;28;20084;-80
2021/03/01 08:38:15;;;;;;;32.38;17.23;;;;;;;9.08;40.77;95916.13;4973518;28;20038;-81
2021/03/01 08:40:56;;;;;;;22.63;12.98;;;;;;;9.02;40.81;95915.91;4972178;28;20041;-82
2021/03/01 08:43:41;;;;;;;16.48;10.00;;;;;;;8.91;40.46;95913.88;4992122;28;20073;-81
2021/03/01 08:46:07;;;;;;;21.63;12.65;;;;;;;8.92;40.41;95918.06;4973829;28;20088;-81
2021/03/01 08:48:41;;;;;;;24.38;14.82;;;;;;;9.05;40.48;95925.09;4999964;28;20030;-80
2021/03/01 08:51:06;;;;;;;17.58;11.35;;;;;;;9.14;40.46;95930.91;4970275;28;20034;-80
2021/03/01 08:53:32;;;;;;;16.15;11.43;;;;;;;9.23;40.18;95919.34;4991816;28;20065;-80
2021/03/01 08:55:58;;;;;;;21.42;12.10;;;;;;;9.29;39.38;95926.38;4980114;28;20045;-80
2021/03/01 08:58:29;;;;;;;14.77;10.10;;;;;;;9.28;39.41;95917.78;4998290;28;20077;-82
2021/03/01 09:00:56;;;;;;;26.90;10.27;;;;;;;9.18;39.40;95913.97;4964409;28;20034;-80
2021/03/01 09:03:26;;;;;;;19.88;12.30;;;;;;;9.34;39.45;95918.78;5528802;23;20567;-80
2021/03/01 09:05:53;;;;;;;30.58;12.88;;;;;;;9.40;38.58;95907.59;4989197;28;20064;-80
2021/03/01 09:08:30;;;;;;;31.58;13.35;;;;;;;9.62;39.13;95918.66;5004107;28;20037;-80
2021/03/01 09:10:55;;;;;;;22.70;13.55;;;;;;;9.49;38.28;95916.81;5020123;28;20010;-82
2021/03/01 09:13:22;;;;;;;24.77;12.57;;;;;;;9.65;38.24;95914.84;5010361;28;20042;-82
2021/03/01 09:15:47;;;;;;;14.05;9.32;;;;;;;9.61;37.12;95914.44;5012534;28;20034;-82
2021/03/01 09:18:13;;;;;;;24.23;12.93;;;;;;;9.68;38.25;95911.84;5011131;28;20417;-82
2021/03/01 09:20:59;;;;;;;19.45;9.35;;;;;;;9.90;36.03;95897.66;5003189;28;20485;-83
2021/03/01 09:23:35;;;;;;;13.18;9.07;;;;;;;9.97;36.74;95908.84;5006708;28;20046;-83
2021/03/01 09:26:05;;;;;;;28.05;11.57;;;;;;;10.00;36.98;95908.44;5016144;28;20038;-83
2021/03/01 09:32:29;;;;;;;21.52;11.07;;;;;;;10.03;37.29;95902.84;4945068;28;20046;-83
2021/03/01 09:34:55;;;;;;;33.83;13.27;;;;;;;10.26;37.24;95893.88;5017785;28;20113;-82
2021/03/01 09:37:52;;;;;;;19.67;8.70;;;;;;;10.37;35.28;95877.63;5015393;28;20430;-83
2021/03/01 09:40:23;;;;;;;15.93;8.90;;;;;;;10.34;35.17;95888.44;5010377;28;20509;-82
2021/03/01 09:43:04;;;;;;;28.45;10.10;;;;;;;10.46;34.17;95889.41;5014830;28;20022;-83
2021/03/01 09:45:35;;;;;;;35.47;11.18;;;;;;;10.53;33.30;95877.97;4990609;28;20029;-83
2021/03/01 09:48:28;;;;;;;30.05;13.43;;;;;;;10.68;34.47;95880.34;5010491;28;20053;-83
2021/03/01 09:50:54;;;;;;;21.77;11.40;;;;;;;10.86;33.49;95897.06;4968867;28;20074;-83
2021/03/01 09:53:20;;;;;;;21.52;12.15;;;;;;;10.99;32.99;95902.22;5011407;28;20422;-83
2021/03/01 09:55:45;;;;;;;20.95;9.57;;;;;;;11.08;33.05;95901.00;5010564;28;20037;-82
2021/03/01 09:58:25;;;;;;;17.83;11.48;;;;;;;11.24;32.27;95903.13;5013284;28;20041;-82
2021/03/01 10:00:50;;;;;;;24.70;11.77;;;;;;;11.34;32.79;95895.63;5011799;28;20025;-84
2021/03/01 10:03:16;;;;;;;17.58;10.77;;;;;;;11.53;32.71;95906.94;5015521;28;20084;-84
2021/03/01 10:05:51;;;;;;;13.10;8.65;;;;;;;11.59;31.33;95906.09;4987634;28;20058;-84
2021/03/01 10:08:21;;;;;;;14.98;8.40;;;;;;;11.62;32.77;95904.88;5012469;28;20030;-84
2021/03/01 10:10:49;;;;;;;20.60;9.52;;;;;;;11.63;31.43;95899.47;5012663;28;20030;-83
2021/03/01 10:13:28;;;;;;;16.98;9.93;;;;;;;11.55;32.46;95901.50;5008540;28;20030;-83
2021/03/01 10:16:39;;;;;;;21.80;8.88;;;;;;;11.63;32.04;95903.88;5009240;28;20125;-84
2021/03/01 10:19:24;;;;;;;12.07;7.40;;;;;;;11.58;31.80;95908.91;4932222;29;20425;-84
2021/03/01 10:21:50;;;;;;;15.95;9.15;;;;;;;11.67;31.88;95894.63;4933515;29;20447;-83
2021/03/01 10:24:46;;;;;;;20.63;9.10;;;;;;;11.93;31.39;95891.03;5001579;28;20041;-84
2021/03/01 10:27:14;;;;;;;17.35;8.52;;;;;;;12.05;31.07;95885.94;5007504;28;20124;-84
2021/03/01 10:29:51;;;;;;;13.50;8.30;;;;;;;12.25;31.71;95892.56;5011326;28;20044;-84
2021/03/01 10:39:17;;;;;;;22.83;8.73;;;;;;;11.85;31.04;95873.84;5303306;23;20264;-81
2021/03/01 10:41:47;;;;;;;10.48;8.32;;;;;;;11.88;31.69;95876.06;4993981;28;20061;-81
2021/03/01 10:44:16;;;;;;;12.57;7.85;;;;;;;12.15;31.42;95876.59;5080290;23;20078;-79
2021/03/01 10:46:50;;;;;;;22.10;11.35;;;;;;;12.33;30.92;95868.00;4986848;28;20037;-81
2021/03/01 10:49:31;;;;;;;27.60;11.70;;;;;;;12.55;30.51;95861.34;4991850;28;20181;-79
2021/03/01 10:51:58;;;;;;;14.32;8.15;;;;;;;12.51;30.59;95870.59;4991296;28;20040;-82
2021/03/01 10:54:24;;;;;;;20.10;9.10;;;;;;;12.57;30.46;95859.31;4996527;28;20030;-82
2021/03/01 10:56:49;;;;;;;24.17;13.00;;;;;;;12.66;30.07;95851.19;4982513;28;20320;-80
2021/03/01 10:59:15;;;;;;;26.27;12.77;;;;;;;12.72;30.00;95843.28;4974552;28;20921;-80
2021/03/01 11:01:42;;;;;;;30.25;11.20;;;;;;;12.72;30.73;95853.72;4991600;28;20038;-80
2021/03/01 11:04:08;;;;;;;26.45;14.35;;;;;;;12.76;30.71;95852.28;4975368;28;20494;-81
2021/03/01 11:06:34;;;;;;;22.90;13.10;;;;;;;12.83;30.16;95836.50;4996448;28;20034;-81
2021/03/01 11:09:00;;;;;;;22.15;9.30;;;;;;;12.77;32.71;95847.84;4976862;28;20038;-84
2021/03/01 11:11:26;;;;;;;32.83;16.90;;;;;;;12.79;30.89;95835.38;4975829;28;20506;-85
2021/03/01 11:13:51;;;;;;;22.67;14.00;;;;;;;12.90;31.82;95842.47;4958733;28;20034;-85
2021/03/01 11:16:20;;;;;;;32.55;16.08;;;;;;;12.96;31.79;95852.00;4975891;28;20045;-86
2021/03/01 11:18:45;;;;;;;19.33;10.27;;;;;;;12.78;31.89;95833.78;4977663;28;20042;-84
2021/03/01 11:21:11;;;;;;;11.35;7.78;;;;;;;12.70;32.53;95845.31;4976961;28;20037;-83
2021/03/01 11:23:37;;;;;;;21.52;11.73;;;;;;;12.69;32.24;95835.09;4993042;28;20039;-87
2021/03/01 11:26:02;;;;;;;17.45;8.52;;;;;;;12.39;31.70;95829.84;4962477;28;20022;-87
2021/03/01 11:28:30;;;;;;;18.30;7.47;;;;;;;12.08;32.58;95834.16;4993903;28;20058;-86
2021/03/01 11:30:59;;;;;;;12.90;8.02;;;;;;;11.88;32.89;95821.31;4979333;28;20057;-87
2021/03/01 11:33:25;;;;;;;15.18;7.32;;;;;;;11.85;32.15;95839.19;4973801;28;20034;-87
2021/03/01 11:35:56;;;;;;;10.75;8.20;;;;;;;11.70;31.53;95829.84;4963588;28;20049;-86
2021/03/01 11:38:48;;;;;;;12.20;8.03;;;;;;;11.52;32.83;95829.00;4977133;28;20035;-85
2021/03/01 11:41:24;;;;;;;11.95;7.65;;;;;;;11.30;34.41;95805.94;5004766;23;20307;-85
2021/03/01 11:43:49;;;;;;;10.57;7.32;;;;;;;11.34;33.70;95801.88;5010720;28;20034;-85
2021/03/01 11:46:24;;;;;;;15.70;9.02;;;;;;;11.56;33.22;95824.97;5007989;28;20092;-87
2021/03/01 11:49:13;;;;;;;13.35;8.18;;;;;;;11.46;33.40;95809.03;5001442;23;20125;-86
2021/03/01 11:51:38;;;;;;;11.90;7.68;;;;;;;11.45;33.19;95808.22;5005480;28;20037;-81
2021/03/01 11:54:07;;;;;;;14.15;7.78;;;;;;;11.46;32.41;95829.84;4988258;28;20025;-87
2021/03/01 11:56:33;;;;;;;10.98;7.80;;;;;;;11.34;33.27;95833.13;4987190;28;20042;-86
2021/03/01 12:13:17;;;;;;;14.15;7.95;;;;;;;8.08;39.19;95839.66;4992156;28;20069;-83
2021/03/01 12:15:42;;;;;;;11.10;7.85;;;;;;;8.26;39.42;95858.09;4989758;28;20490;-78
2021/03/01 12:18:08;;;;;;;11.90;8.43;;;;;;;8.27;39.93;95870.06;4995749;28;20030;-80
2021/03/01 12:20:34;;;;;;;9.35;7.32;;;;;;;8.25;40.29;95864.28;4954254;28;20035;-80
2021/03/01 12:22:59;;;;;;;16.38;8.48;;;;;;;8.22;40.56;95877.63;5006275;28;20033;-80